createdAt,value
2017-06-13T00:00:23.638Z,928.31
2017-06-13T00:00:51.954Z,928.28
2017-06-13T00:01:20.172Z,928.31
2017-06-13T00:01:48.314Z,928.29
2017-06-13T00:02:16.444Z,928.29
2017-06-13T00:02:44.702Z,928.3
2017-06-13T00:03:13.001Z,928.3
2017-06-13T00:03:41.325Z,928.26
2017-06-13T00:04:09.435Z,928.28
2017-06-13T00:05:20.545Z,928.27
2017-06-13T00:05:48.731Z,928.28
2017-06-13T00:06:17.001Z,928.26
2017-06-13T00:06:45.238Z,928.28
2017-06-13T00:07:13.356Z,928.3
2017-06-13T00:07:41.597Z,928.3
2017-06-13T00:08:09.735Z,928.31
2017-06-13T00:08:37.896Z,928.29
2017-06-13T00:09:06.105Z,928.31
2017-06-13T00:09:34.430Z,928.28
2017-06-13T00:10:02.640Z,928.3
2017-06-13T00:11:13.569Z,928.29
2017-06-13T00:11:41.748Z,928.25
2017-06-13T00:12:10.025Z,928.24
2017-06-13T00:12:38.156Z,928.28
2017-06-13T00:13:06.269Z,928.25
2017-06-13T00:13:34.510Z,928.25
2017-06-13T00:14:02.549Z,928.24
2017-06-13T00:14:30.805Z,928.23
2017-06-13T00:14:59.014Z,928.25
2017-06-13T00:15:27.061Z,928.23
2017-06-13T00:15:55.270Z,928.23
2017-06-13T00:17:06.569Z,928.21
2017-06-13T00:17:34.845Z,928.25
2017-06-13T00:18:03.123Z,928.24
2017-06-13T00:18:31.442Z,928.2
2017-06-13T00:18:59.560Z,928.22
2017-06-13T00:19:27.520Z,928.18
2017-06-13T00:19:55.557Z,928.23
2017-06-13T00:20:23.723Z,928.22
2017-06-13T00:20:51.745Z,928.19
2017-06-13T00:21:20.079Z,928.22
2017-06-13T00:21:48.193Z,928.23
2017-06-13T00:22:59.305Z,928.23
2017-06-13T00:23:27.486Z,928.26
2017-06-13T00:23:55.670Z,928.26
2017-06-13T00:24:23.888Z,928.31
2017-06-13T00:24:52.007Z,928.28
2017-06-13T00:25:20.250Z,928.31
2017-06-13T00:25:48.476Z,928.24
2017-06-13T00:26:16.733Z,928.26
2017-06-13T00:26:45.034Z,928.27
2017-06-13T00:27:13.361Z,928.27
2017-06-13T00:27:41.662Z,928.26
2017-06-13T00:28:52.776Z,928.29
2017-06-13T00:29:21.050Z,928.22
2017-06-13T00:29:49.140Z,928.22
2017-06-13T00:30:17.358Z,928.23
2017-06-13T00:30:45.382Z,928.21
2017-06-13T00:31:13.617Z,928.16
2017-06-13T00:31:41.755Z,928.2
2017-06-13T00:32:09.915Z,928.15
2017-06-13T00:32:38.120Z,928.16
2017-06-13T00:33:06.358Z,928.18
2017-06-13T00:33:34.658Z,928.18
2017-06-13T00:34:45.912Z,928.17
2017-06-13T00:35:14.092Z,928.21
2017-06-13T00:35:42.268Z,928.17
2017-06-13T00:36:10.582Z,928.22
2017-06-13T00:36:38.697Z,928.23
2017-06-13T00:37:06.844Z,928.22
2017-06-13T00:37:34.976Z,928.24
2017-06-13T00:38:02.975Z,928.21
2017-06-13T00:38:31.161Z,928.21
2017-06-13T00:38:59.487Z,928.23
2017-06-13T00:39:27.693Z,928.24
2017-06-13T00:40:38.897Z,928.26
2017-06-13T00:41:07.076Z,928.26
2017-06-13T00:41:35.356Z,928.24
2017-06-13T00:42:03.671Z,928.28
2017-06-13T00:42:31.793Z,928.27
2017-06-13T00:42:59.947Z,928.26
2017-06-13T00:43:28.087Z,928.29
2017-06-13T00:43:56.346Z,928.27
2017-06-13T00:44:24.548Z,928.28
2017-06-13T00:44:52.877Z,928.28
2017-06-13T00:45:21.081Z,928.3
2017-06-13T00:46:32.379Z,928.32
2017-06-13T00:47:00.656Z,928.31
2017-06-13T00:47:28.932Z,928.33
2017-06-13T00:47:57.059Z,928.35
2017-06-13T00:48:25.103Z,928.35
2017-06-13T00:48:53.159Z,928.32
2017-06-13T00:49:21.289Z,928.34
2017-06-13T00:49:49.547Z,928.33
2017-06-13T00:50:17.656Z,928.32
2017-06-13T00:50:45.988Z,928.31
2017-06-13T00:51:14.290Z,928.33
2017-06-13T00:52:25.497Z,928.3
2017-06-13T00:52:53.774Z,928.32
2017-06-13T00:53:21.952Z,928.32
2017-06-13T00:53:50.173Z,928.28
2017-06-13T00:54:18.387Z,928.29
2017-06-13T00:54:46.536Z,928.29
2017-06-13T00:55:14.771Z,928.26
2017-06-13T00:55:42.931Z,928.31
2017-06-13T00:56:11.135Z,928.25
2017-06-13T00:56:39.370Z,928.24
2017-06-13T00:57:07.609Z,928.25
2017-06-13T00:58:18.791Z,928.29
2017-06-13T00:58:46.966Z,928.31
2017-06-13T00:59:15.151Z,928.3
2017-06-13T00:59:43.463Z,928.27
2017-06-13T01:00:11.678Z,928.31
2017-06-13T01:00:39.830Z,928.31
2017-06-13T01:01:08.053Z,928.31
2017-06-13T01:01:36.221Z,928.35
2017-06-13T01:02:04.430Z,928.35
2017-06-13T01:02:32.664Z,928.34
2017-06-13T01:03:00.966Z,928.31
2017-06-13T01:04:12.075Z,928.3
2017-06-13T01:04:40.068Z,928.3
2017-06-13T01:05:08.345Z,928.36
2017-06-13T01:05:36.380Z,928.28
2017-06-13T01:06:04.500Z,928.34
2017-06-13T01:06:32.643Z,928.33
2017-06-13T01:07:00.872Z,928.34
2017-06-13T01:07:29.038Z,928.34
2017-06-13T01:07:57.336Z,928.35
2017-06-13T01:08:25.578Z,928.31
2017-06-13T01:08:53.786Z,928.37
2017-06-13T01:10:04.993Z,928.35
2017-06-13T01:10:33.269Z,928.35
2017-06-13T01:11:01.547Z,928.35
2017-06-13T01:11:29.863Z,928.32
2017-06-13T01:11:57.983Z,928.34
2017-06-13T01:12:26.126Z,928.34
2017-06-13T01:12:54.260Z,928.36
2017-06-13T01:13:22.517Z,928.36
2017-06-13T01:13:50.718Z,928.38
2017-06-13T01:14:18.768Z,928.36
2017-06-13T01:14:46.977Z,928.4
2017-06-13T01:15:58.087Z,928.34
2017-06-13T01:16:26.363Z,928.35
2017-06-13T01:16:54.542Z,928.36
2017-06-13T01:17:22.863Z,928.34
2017-06-13T01:17:50.892Z,928.3
2017-06-13T01:18:19.041Z,928.31
2017-06-13T01:18:47.272Z,928.33
2017-06-13T01:19:15.526Z,928.32
2017-06-13T01:19:43.546Z,928.32
2017-06-13T01:20:11.783Z,928.29
2017-06-13T01:20:39.984Z,928.33
2017-06-13T01:21:51.284Z,928.38
2017-06-13T01:22:19.562Z,928.36
2017-06-13T01:22:47.840Z,928.4
2017-06-13T01:23:16.157Z,928.4
2017-06-13T01:23:44.218Z,928.37
2017-06-13T01:24:12.366Z,928.38
2017-06-13T01:24:40.496Z,928.38
2017-06-13T01:25:08.660Z,928.37
2017-06-13T01:25:36.963Z,928.36
2017-06-13T01:26:05.204Z,928.36
2017-06-13T01:26:33.504Z,928.36
2017-06-13T01:27:44.705Z,928.38
2017-06-13T01:28:12.982Z,928.38
2017-06-13T01:28:41.262Z,928.38
2017-06-13T01:29:09.391Z,928.37
2017-06-13T01:29:37.508Z,928.35
2017-06-13T01:30:05.751Z,928.37
2017-06-13T01:30:33.895Z,928.35
2017-06-13T01:31:02.062Z,928.31
2017-06-13T01:31:30.266Z,928.33
2017-06-13T01:31:58.504Z,928.32
2017-06-13T01:32:26.708Z,928.31
2017-06-13T01:33:38.010Z,928.35
2017-06-13T01:34:06.286Z,928.29
2017-06-13T01:34:34.565Z,928.32
2017-06-13T01:35:02.783Z,928.33
2017-06-13T01:35:30.809Z,928.29
2017-06-13T01:35:58.855Z,928.32
2017-06-13T01:36:27.082Z,928.33
2017-06-13T01:36:55.340Z,928.32
2017-06-13T01:37:23.544Z,928.27
2017-06-13T01:37:51.777Z,928.26
2017-06-13T01:38:19.889Z,928.24
2017-06-13T01:39:31.189Z,928.24
2017-06-13T01:39:59.377Z,928.24
2017-06-13T01:40:27.648Z,928.22
2017-06-13T01:40:55.771Z,928.24
2017-06-13T01:41:23.793Z,928.18
2017-06-13T01:41:52.031Z,928.18
2017-06-13T01:42:20.073Z,928.22
2017-06-13T01:42:48.328Z,928.19
2017-06-13T01:43:16.443Z,928.22
2017-06-13T01:43:44.778Z,928.22
2017-06-13T01:44:12.893Z,928.26
2017-06-13T01:45:23.914Z,928.24
2017-06-13T01:45:52.187Z,928.17
2017-06-13T01:46:20.374Z,928.23
2017-06-13T01:46:48.504Z,928.23
2017-06-13T01:47:16.529Z,928.25
2017-06-13T01:47:44.585Z,928.24
2017-06-13T01:48:12.625Z,928.28
2017-06-13T01:48:40.799Z,928.24
2017-06-13T01:49:09.004Z,928.25
2017-06-13T01:49:37.237Z,928.24
2017-06-13T01:50:05.447Z,928.27
2017-06-13T01:51:16.559Z,928.27
2017-06-13T01:51:44.743Z,928.22
2017-06-13T01:52:13.015Z,928.23
2017-06-13T01:52:41.048Z,928.22
2017-06-13T01:53:09.167Z,928.22
2017-06-13T01:53:37.409Z,928.21
2017-06-13T01:54:05.636Z,928.24
2017-06-13T01:54:33.894Z,928.23
2017-06-13T01:55:02.101Z,928.28
2017-06-13T01:55:30.343Z,928.24
2017-06-13T01:55:58.546Z,928.25
2017-06-13T01:57:09.751Z,928.23
2017-06-13T01:57:37.849Z,928.23
2017-06-13T01:58:06.124Z,928.21
2017-06-13T01:58:34.436Z,928.21
2017-06-13T01:59:02.658Z,928.22
2017-06-13T01:59:30.803Z,928.19
2017-06-13T01:59:58.935Z,928.23
2017-06-13T02:00:26.908Z,928.21
2017-06-13T02:00:55.210Z,928.23
2017-06-13T02:01:23.256Z,928.21
2017-06-13T02:01:51.463Z,928.19
2017-06-13T02:03:02.692Z,928.2
2017-06-13T02:03:30.876Z,928.16
2017-06-13T02:03:59.153Z,928.13
2017-06-13T02:04:27.181Z,928.15
2017-06-13T02:04:55.303Z,928.12
2017-06-13T02:05:23.449Z,928.14
2017-06-13T02:05:51.677Z,928.13
2017-06-13T02:06:19.861Z,928.13
2017-06-13T02:06:48.068Z,928.16
2017-06-13T02:07:16.310Z,928.12
2017-06-13T02:07:44.523Z,928.14
2017-06-13T02:08:55.827Z,928.13
2017-06-13T02:09:24.101Z,928.14
2017-06-13T02:09:52.380Z,928.12
2017-06-13T02:10:20.515Z,928.14
2017-06-13T02:10:48.541Z,928.19
2017-06-13T02:11:16.689Z,928.19
2017-06-13T02:11:44.825Z,928.15
2017-06-13T02:12:13.089Z,928.21
2017-06-13T02:12:41.296Z,928.19
2017-06-13T02:13:09.537Z,928.21
2017-06-13T02:13:37.744Z,928.2
2017-06-13T02:14:48.953Z,928.19
2017-06-13T02:15:17.039Z,928.19
2017-06-13T02:15:45.323Z,928.18
2017-06-13T02:16:13.543Z,928.2
2017-06-13T02:16:41.759Z,928.19
2017-06-13T02:17:09.819Z,928.17
2017-06-13T02:17:38.047Z,928.17
2017-06-13T02:18:06.213Z,928.16
2017-06-13T02:18:34.518Z,928.1
2017-06-13T02:19:02.876Z,928.13
2017-06-13T02:19:31.057Z,928.11
2017-06-13T02:20:42.271Z,928.1
2017-06-13T02:21:10.354Z,928.06
2017-06-13T02:21:38.639Z,928.08
2017-06-13T02:22:06.861Z,928.04
2017-06-13T02:22:35.080Z,928.07
2017-06-13T02:23:03.232Z,928.05
2017-06-13T02:23:31.464Z,928.1
2017-06-13T02:23:59.637Z,928.09
2017-06-13T02:24:27.942Z,928.12
2017-06-13T02:24:56.181Z,928.09
2017-06-13T02:25:24.484Z,928.13
2017-06-13T02:26:35.784Z,928.12
2017-06-13T02:27:03.962Z,928.15
2017-06-13T02:27:32.236Z,928.12
2017-06-13T02:28:00.459Z,928.11
2017-06-13T02:28:28.580Z,928.11
2017-06-13T02:28:56.825Z,928.13
2017-06-13T02:29:24.870Z,928.11
2017-06-13T02:29:53.133Z,928.1
2017-06-13T02:30:21.341Z,928.08
2017-06-13T02:30:49.578Z,928.1
2017-06-13T02:31:17.795Z,928.07
2017-06-13T02:32:29.019Z,928.07
2017-06-13T02:32:57.107Z,928.06
2017-06-13T02:33:25.397Z,928.05
2017-06-13T02:33:53.512Z,928.01
2017-06-13T02:34:21.466Z,928.01
2017-06-13T02:34:49.709Z,928.03
2017-06-13T02:35:17.841Z,927.99
2017-06-13T02:35:45.918Z,928
2017-06-13T02:36:14.218Z,928
2017-06-13T02:36:42.459Z,928.04
2017-06-13T02:37:10.760Z,928
2017-06-13T02:38:22.069Z,928.01
2017-06-13T02:38:50.342Z,928.02
2017-06-13T02:39:18.618Z,928.03
2017-06-13T02:39:46.934Z,928.04
2017-06-13T02:40:15.166Z,928.03
2017-06-13T02:40:43.314Z,928.09
2017-06-13T02:41:11.568Z,928.07
2017-06-13T02:41:39.738Z,928.09
2017-06-13T02:42:08.040Z,928.08
2017-06-13T02:42:36.276Z,928.08
2017-06-13T02:43:04.577Z,928.08
2017-06-13T02:44:15.782Z,928.07
2017-06-13T02:44:43.961Z,928.12
2017-06-13T02:45:12.236Z,928.05
2017-06-13T02:45:40.458Z,928.05
2017-06-13T02:46:08.671Z,928.08
2017-06-13T02:46:36.911Z,928.11
2017-06-13T02:47:05.149Z,928.09
2017-06-13T02:47:33.312Z,928.06
2017-06-13T02:48:01.427Z,928.09
2017-06-13T02:48:29.757Z,928.06
2017-06-13T02:48:58.061Z,928.05
2017-06-13T02:50:09.362Z,928.09
2017-06-13T02:50:37.444Z,928.13
2017-06-13T02:51:05.723Z,928.14
2017-06-13T02:51:34.035Z,928.14
2017-06-13T02:52:02.253Z,928.15
2017-06-13T02:52:30.493Z,928.14
2017-06-13T02:52:58.634Z,928.14
2017-06-13T02:53:26.702Z,928.13
2017-06-13T02:53:54.906Z,928.15
2017-06-13T02:54:23.134Z,928.12
2017-06-13T02:54:51.437Z,928.14
2017-06-13T02:56:02.739Z,928.12
2017-06-13T02:56:31.015Z,928.14
2017-06-13T02:56:59.292Z,928.15
2017-06-13T02:57:27.611Z,928.14
2017-06-13T02:57:55.636Z,928.14
2017-06-13T02:58:23.781Z,928.13
2017-06-13T02:58:52.014Z,928.13
2017-06-13T02:59:20.271Z,928.12
2017-06-13T02:59:48.479Z,928.17
2017-06-13T03:00:16.719Z,928.16
2017-06-13T03:00:45.027Z,928.17
2017-06-13T03:01:56.230Z,928.17
2017-06-13T03:02:24.499Z,928.22
2017-06-13T03:02:52.775Z,928.26
2017-06-13T03:03:21.091Z,928.25
2017-06-13T03:03:49.118Z,928.29
2017-06-13T03:04:17.171Z,928.27
2017-06-13T03:04:45.398Z,928.25
2017-06-13T03:05:13.657Z,928.26
2017-06-13T03:05:41.959Z,928.28
2017-06-13T03:06:10.292Z,928.25
2017-06-13T03:06:38.504Z,928.25
2017-06-13T03:07:49.711Z,928.24
2017-06-13T03:08:17.797Z,928.22
2017-06-13T03:08:46.077Z,928.2
2017-06-13T03:09:14.295Z,928.2
2017-06-13T03:09:42.417Z,928.22
2017-06-13T03:10:10.565Z,928.24
2017-06-13T03:10:38.701Z,928.22
2017-06-13T03:11:06.778Z,928.23
2017-06-13T03:11:35.073Z,928.21
2017-06-13T03:12:03.306Z,928.21
2017-06-13T03:12:31.612Z,928.2
2017-06-13T03:13:42.731Z,928.19
2017-06-13T03:14:11.006Z,928.19
2017-06-13T03:14:39.282Z,928.16
2017-06-13T03:15:07.410Z,928.15
2017-06-13T03:15:35.624Z,928.15
2017-06-13T03:16:03.775Z,928.15
2017-06-13T03:16:31.916Z,928.13
2017-06-13T03:17:00.171Z,928.17
2017-06-13T03:17:28.375Z,928.15
2017-06-13T03:17:56.606Z,928.17
2017-06-13T03:18:24.808Z,928.13
2017-06-13T03:19:36.014Z,928.18
2017-06-13T03:20:04.289Z,928.2
2017-06-13T03:20:32.565Z,928.17
2017-06-13T03:21:00.694Z,928.18
2017-06-13T03:21:28.813Z,928.19
2017-06-13T03:21:56.867Z,928.17
2017-06-13T03:22:24.902Z,928.14
2017-06-13T03:22:53.160Z,928.19
2017-06-13T03:23:21.458Z,928.16
2017-06-13T03:23:49.694Z,928.17
2017-06-13T03:24:17.898Z,928.18
2017-06-13T03:25:29.106Z,928.19
2017-06-13T03:25:57.284Z,928.14
2017-06-13T03:26:25.561Z,928.15
2017-06-13T03:26:53.874Z,928.15
2017-06-13T03:27:22.088Z,928.2
2017-06-13T03:27:50.329Z,928.19
2017-06-13T03:28:18.558Z,928.2
2017-06-13T03:28:46.718Z,928.21
2017-06-13T03:29:14.830Z,928.22
2017-06-13T03:29:43.163Z,928.22
2017-06-13T03:30:11.369Z,928.24
2017-06-13T03:31:22.671Z,928.27
2017-06-13T03:31:50.949Z,928.27
2017-06-13T03:32:19.223Z,928.27
2017-06-13T03:32:47.538Z,928.24
2017-06-13T03:33:15.564Z,928.27
2017-06-13T03:33:43.715Z,928.25
2017-06-13T03:34:11.946Z,928.24
2017-06-13T03:34:40.013Z,928.26
2017-06-13T03:35:08.217Z,928.27
2017-06-13T03:35:36.445Z,928.27
2017-06-13T03:36:04.647Z,928.24
2017-06-13T03:37:15.754Z,928.22
2017-06-13T03:37:43.928Z,928.24
2017-06-13T03:38:12.114Z,928.2
2017-06-13T03:38:40.329Z,928.23
2017-06-13T03:39:08.445Z,928.21
2017-06-13T03:39:36.690Z,928.19
2017-06-13T03:40:04.820Z,928.25
2017-06-13T03:40:32.981Z,928.22
2017-06-13T03:41:01.188Z,928.25
2017-06-13T03:41:29.321Z,928.24
2017-06-13T03:41:57.619Z,928.24
2017-06-13T03:43:08.819Z,928.26
2017-06-13T03:43:36.995Z,928.3
2017-06-13T03:44:05.269Z,928.32
2017-06-13T03:44:33.580Z,928.33
2017-06-13T03:45:01.698Z,928.33
2017-06-13T03:45:29.839Z,928.36
2017-06-13T03:45:58.065Z,928.34
2017-06-13T03:46:26.138Z,928.4
2017-06-13T03:46:54.440Z,928.39
2017-06-13T03:47:22.676Z,928.4
2017-06-13T03:47:50.879Z,928.4
2017-06-13T03:49:02.179Z,928.38
2017-06-13T03:49:30.264Z,928.45
2017-06-13T03:49:58.541Z,928.45
2017-06-13T03:50:26.756Z,928.47
2017-06-13T03:50:54.779Z,928.47
2017-06-13T03:51:22.925Z,928.48
2017-06-13T03:51:51.149Z,928.51
2017-06-13T03:52:19.122Z,928.51
2017-06-13T03:52:47.327Z,928.52
2017-06-13T03:53:15.372Z,928.49
2017-06-13T03:53:43.579Z,928.5
2017-06-13T03:54:54.782Z,928.5
2017-06-13T03:55:22.963Z,928.44
2017-06-13T03:55:51.140Z,928.46
2017-06-13T03:56:19.359Z,928.44
2017-06-13T03:56:47.580Z,928.41
2017-06-13T03:57:15.820Z,928.43
2017-06-13T03:57:43.957Z,928.43
2017-06-13T03:58:12.114Z,928.41
2017-06-13T03:58:40.412Z,928.43
2017-06-13T03:59:08.551Z,928.41
2017-06-13T03:59:36.717Z,928.41
2017-06-13T04:00:47.919Z,928.42
2017-06-13T04:01:16.102Z,928.37
2017-06-13T04:01:44.376Z,928.36
2017-06-13T04:02:12.690Z,928.32
2017-06-13T04:02:40.808Z,928.3
2017-06-13T04:03:09.050Z,928.3
2017-06-13T04:03:37.280Z,928.27
2017-06-13T04:04:05.444Z,928.28
2017-06-13T04:04:33.751Z,928.24
2017-06-13T04:05:01.894Z,928.24
2017-06-13T04:05:30.105Z,928.26
2017-06-13T04:06:41.406Z,928.23
2017-06-13T04:07:09.676Z,928.21
2017-06-13T04:07:37.954Z,928.22
2017-06-13T04:08:06.189Z,928.23
2017-06-13T04:08:34.406Z,928.25
2017-06-13T04:09:02.645Z,928.25
2017-06-13T04:09:30.592Z,928.24
2017-06-13T04:09:58.660Z,928.21
2017-06-13T04:10:26.776Z,928.23
2017-06-13T04:10:55.013Z,928.19
2017-06-13T04:11:23.316Z,928.22
2017-06-13T04:12:34.617Z,928.22
2017-06-13T04:13:02.898Z,928.23
2017-06-13T04:13:31.176Z,928.22
2017-06-13T04:13:59.403Z,928.23
2017-06-13T04:14:27.529Z,928.26
2017-06-13T04:14:55.774Z,928.25
2017-06-13T04:15:23.717Z,928.28
2017-06-13T04:15:51.882Z,928.26
2017-06-13T04:16:20.189Z,928.29
2017-06-13T04:16:48.424Z,928.31
2017-06-13T04:17:16.636Z,928.29
2017-06-13T04:18:27.937Z,928.31
2017-06-13T04:18:56.213Z,928.3
2017-06-13T04:19:24.491Z,928.31
2017-06-13T04:19:52.712Z,928.31
2017-06-13T04:20:20.923Z,928.27
2017-06-13T04:20:49.011Z,928.28
2017-06-13T04:21:17.144Z,928.27
2017-06-13T04:21:45.308Z,928.26
2017-06-13T04:22:13.515Z,928.24
2017-06-13T04:22:41.753Z,928.25
2017-06-13T04:23:09.966Z,928.25
2017-06-13T04:24:21.270Z,928.24
2017-06-13T04:24:49.447Z,928.26
2017-06-13T04:25:17.723Z,928.27
2017-06-13T04:25:46.042Z,928.26
2017-06-13T04:26:14.157Z,928.29
2017-06-13T04:26:42.396Z,928.27
2017-06-13T04:27:10.528Z,928.24
2017-06-13T04:27:38.791Z,928.27
2017-06-13T04:28:07.093Z,928.27
2017-06-13T04:28:35.238Z,928.24
2017-06-13T04:29:03.446Z,928.24
2017-06-13T04:30:14.750Z,928.26
2017-06-13T04:30:43.027Z,928.23
2017-06-13T04:31:11.209Z,928.26
2017-06-13T04:31:39.434Z,928.21
2017-06-13T04:32:07.469Z,928.23
2017-06-13T04:32:35.611Z,928.22
2017-06-13T04:33:03.751Z,928.25
2017-06-13T04:33:31.916Z,928.25
2017-06-13T04:34:00.215Z,928.22
2017-06-13T04:34:28.452Z,928.2
2017-06-13T04:34:56.663Z,928.23
2017-06-13T04:36:07.873Z,928.2
2017-06-13T04:36:36.148Z,928.15
2017-06-13T04:37:04.327Z,928.14
2017-06-13T04:37:32.548Z,928.19
2017-06-13T04:38:00.664Z,928.13
2017-06-13T04:38:28.906Z,928.13
2017-06-13T04:38:56.945Z,928.16
2017-06-13T04:39:24.916Z,928.17
2017-06-13T04:39:53.126Z,928.16
2017-06-13T04:40:21.268Z,928.15
2017-06-13T04:40:49.384Z,928.12
2017-06-13T04:42:00.492Z,928.14
2017-06-13T04:42:28.575Z,928.13
2017-06-13T04:42:56.850Z,928.09
2017-06-13T04:43:25.066Z,928.09
2017-06-13T04:43:53.099Z,928.11
2017-06-13T04:44:21.158Z,928.13
2017-06-13T04:44:49.387Z,928.16
2017-06-13T04:45:17.637Z,928.13
2017-06-13T04:45:45.939Z,928.15
2017-06-13T04:46:14.074Z,928.13
2017-06-13T04:46:42.283Z,928.16
2017-06-13T04:47:53.397Z,928.16
2017-06-13T04:48:21.577Z,928.11
2017-06-13T04:48:49.852Z,928.12
2017-06-13T04:49:18.164Z,928.15
2017-06-13T04:49:46.188Z,928.12
2017-06-13T04:50:14.332Z,928.12
2017-06-13T04:50:42.464Z,928.16
2017-06-13T04:51:10.440Z,928.17
2017-06-13T04:51:38.647Z,928.17
2017-06-13T04:52:06.693Z,928.18
2017-06-13T04:52:34.896Z,928.19
2017-06-13T04:53:46.100Z,928.18
2017-06-13T04:54:14.374Z,928.2
2017-06-13T04:54:42.469Z,928.19
2017-06-13T04:55:10.785Z,928.18
2017-06-13T04:55:38.808Z,928.15
2017-06-13T04:56:06.956Z,928.19
2017-06-13T04:56:35.090Z,928.17
2017-06-13T04:57:03.251Z,928.17
2017-06-13T04:57:31.463Z,928.19
2017-06-13T04:57:59.515Z,928.15
2017-06-13T04:58:27.717Z,928.15
2017-06-13T04:59:39.020Z,928.16
2017-06-13T05:00:07.297Z,928.15
2017-06-13T05:00:35.576Z,928.15
2017-06-13T05:01:03.892Z,928.11
2017-06-13T05:01:32.102Z,928.16
2017-06-13T05:02:00.347Z,928.11
2017-06-13T05:02:28.481Z,928.14
2017-06-13T05:02:56.739Z,928.16
2017-06-13T05:03:24.944Z,928.15
2017-06-13T05:03:53.271Z,928.17
2017-06-13T05:04:21.573Z,928.18
2017-06-13T05:05:32.873Z,928.17
2017-06-13T05:06:01.152Z,928.17
2017-06-13T05:06:29.430Z,928.19
2017-06-13T05:06:57.744Z,928.18
2017-06-13T05:07:25.768Z,928.16
2017-06-13T05:07:54.012Z,928.19
2017-06-13T05:08:22.246Z,928.16
2017-06-13T05:08:50.501Z,928.15
2017-06-13T05:09:18.808Z,928.12
2017-06-13T05:09:46.954Z,928.15
2017-06-13T05:10:15.159Z,928.18
2017-06-13T05:11:26.265Z,928.13
2017-06-13T05:11:54.545Z,928.12
2017-06-13T05:12:22.723Z,928.11
2017-06-13T05:12:51.043Z,928.15
2017-06-13T05:13:19.260Z,928.11
2017-06-13T05:13:47.401Z,928.13
2017-06-13T05:14:15.537Z,928.13
2017-06-13T05:14:43.606Z,928.09
2017-06-13T05:15:11.715Z,928.15
2017-06-13T05:15:39.946Z,928.12
2017-06-13T05:16:08.160Z,928.15
2017-06-13T05:17:19.364Z,928.13
2017-06-13T05:17:47.648Z,928.15
2017-06-13T05:18:15.926Z,928.18
2017-06-13T05:18:44.150Z,928.18
2017-06-13T05:19:12.369Z,928.17
2017-06-13T05:19:40.512Z,928.14
2017-06-13T05:20:08.743Z,928.13
2017-06-13T05:20:37.004Z,928.09
2017-06-13T05:21:05.310Z,928.14
2017-06-13T05:21:33.636Z,928.16
2017-06-13T05:22:01.852Z,928.16
2017-06-13T05:23:13.155Z,928.17
2017-06-13T05:23:41.439Z,928.18
2017-06-13T05:24:09.525Z,928.13
2017-06-13T05:24:37.843Z,928.15
2017-06-13T05:25:05.965Z,928.19
2017-06-13T05:25:34.115Z,928.2
2017-06-13T05:26:02.255Z,928.23
2017-06-13T05:26:30.422Z,928.23
2017-06-13T05:26:58.722Z,928.24
2017-06-13T05:27:27.053Z,928.21
2017-06-13T05:27:55.264Z,928.23
2017-06-13T05:29:06.567Z,928.21
2017-06-13T05:29:34.841Z,928.18
2017-06-13T05:30:03.116Z,928.2
2017-06-13T05:30:31.342Z,928.16
2017-06-13T05:30:59.559Z,928.16
2017-06-13T05:31:27.614Z,928.18
2017-06-13T05:31:55.749Z,928.18
2017-06-13T05:32:23.725Z,928.18
2017-06-13T05:32:52.028Z,928.12
2017-06-13T05:33:20.266Z,928.13
2017-06-13T05:33:48.376Z,928.2
2017-06-13T05:34:59.675Z,928.17
2017-06-13T05:35:27.950Z,928.15
2017-06-13T05:35:56.226Z,928.13
2017-06-13T05:36:24.352Z,928.13
2017-06-13T05:36:52.564Z,928.07
2017-06-13T05:37:20.714Z,928.08
2017-06-13T05:37:48.852Z,928.06
2017-06-13T05:38:17.113Z,928.07
2017-06-13T05:38:45.410Z,928.09
2017-06-13T05:39:13.745Z,928.07
2017-06-13T05:39:41.953Z,928.09
2017-06-13T05:40:52.970Z,928.08
2017-06-13T05:41:21.154Z,928
2017-06-13T05:41:49.433Z,928.02
2017-06-13T05:42:17.557Z,928.01
2017-06-13T05:42:45.678Z,928
2017-06-13T05:43:13.819Z,927.96
2017-06-13T05:43:42.050Z,927.97
2017-06-13T05:44:10.114Z,927.96
2017-06-13T05:44:38.323Z,927.94
2017-06-13T05:45:06.658Z,927.94
2017-06-13T05:45:34.963Z,927.91
2017-06-13T05:46:46.263Z,927.93
2017-06-13T05:47:14.353Z,927.93
2017-06-13T05:47:42.630Z,927.91
2017-06-13T05:48:10.847Z,927.91
2017-06-13T05:48:38.970Z,927.9
2017-06-13T05:49:07.214Z,927.92
2017-06-13T05:49:35.439Z,927.92
2017-06-13T05:50:03.506Z,927.91
2017-06-13T05:50:31.712Z,927.95
2017-06-13T05:51:00.054Z,927.9
2017-06-13T05:51:28.266Z,927.9
2017-06-13T05:52:39.377Z,927.91
2017-06-13T05:53:07.655Z,927.89
2017-06-13T05:53:35.930Z,927.93
2017-06-13T05:54:04.152Z,927.92
2017-06-13T05:54:32.181Z,927.88
2017-06-13T05:55:00.424Z,927.92
2017-06-13T05:55:28.652Z,927.92
2017-06-13T05:55:56.910Z,927.93
2017-06-13T05:56:25.112Z,927.92
2017-06-13T05:56:53.449Z,927.91
2017-06-13T05:57:21.751Z,927.93
2017-06-13T05:58:32.956Z,927.94
2017-06-13T05:59:01.135Z,927.95
2017-06-13T05:59:29.413Z,927.91
2017-06-13T05:59:57.542Z,927.91
2017-06-13T06:00:25.478Z,927.87
2017-06-13T06:00:53.718Z,927.86
2017-06-13T06:01:21.856Z,927.86
2017-06-13T06:01:50.112Z,927.88
2017-06-13T06:02:18.415Z,927.88
2017-06-13T06:02:46.744Z,927.87
2017-06-13T06:03:15.047Z,927.87
2017-06-13T06:04:26.348Z,927.85
2017-06-13T06:04:54.624Z,927.81
2017-06-13T06:05:22.903Z,927.8
2017-06-13T06:05:51.037Z,927.77
2017-06-13T06:06:19.061Z,927.77
2017-06-13T06:06:47.210Z,927.76
2017-06-13T06:07:15.435Z,927.73
2017-06-13T06:07:43.593Z,927.74
2017-06-13T06:08:11.795Z,927.75
2017-06-13T06:08:40.123Z,927.71
2017-06-13T06:09:08.330Z,927.78
2017-06-13T06:10:19.531Z,927.75
2017-06-13T06:10:47.806Z,927.73
2017-06-13T06:11:16.081Z,927.74
2017-06-13T06:11:44.293Z,927.75
2017-06-13T06:12:12.322Z,927.77
2017-06-13T06:12:40.461Z,927.76
2017-06-13T06:13:08.691Z,927.77
2017-06-13T06:13:36.853Z,927.81
2017-06-13T06:14:05.057Z,927.77
2017-06-13T06:14:33.295Z,927.77
2017-06-13T06:15:01.502Z,927.76
2017-06-13T06:16:12.708Z,927.75
2017-06-13T06:16:40.980Z,927.75
2017-06-13T06:17:09.160Z,927.75
2017-06-13T06:17:37.279Z,927.73
2017-06-13T06:18:05.493Z,927.67
2017-06-13T06:18:33.638Z,927.68
2017-06-13T06:19:01.772Z,927.7
2017-06-13T06:19:29.936Z,927.67
2017-06-13T06:19:58.236Z,927.65
2017-06-13T06:20:26.472Z,927.63
2017-06-13T06:20:54.766Z,927.64
2017-06-13T06:22:05.783Z,927.63
2017-06-13T06:22:34.056Z,927.6
2017-06-13T06:23:02.236Z,927.59
2017-06-13T06:23:30.460Z,927.59
2017-06-13T06:23:58.579Z,927.61
2017-06-13T06:24:26.814Z,927.61
2017-06-13T06:24:54.845Z,927.62
2017-06-13T06:25:23.103Z,927.62
2017-06-13T06:25:51.216Z,927.63
2017-06-13T06:26:19.450Z,927.61
2017-06-13T06:26:47.753Z,927.63
2017-06-13T06:27:58.862Z,927.61
2017-06-13T06:28:26.953Z,927.57
2017-06-13T06:28:55.226Z,927.59
2017-06-13T06:29:23.352Z,927.57
2017-06-13T06:29:51.472Z,927.54
2017-06-13T06:30:19.709Z,927.54
2017-06-13T06:30:47.843Z,927.55
2017-06-13T06:31:16.099Z,927.54
2017-06-13T06:31:44.299Z,927.54
2017-06-13T06:32:12.531Z,927.54
2017-06-13T06:32:40.829Z,927.53
2017-06-13T06:33:52.032Z,927.49
2017-06-13T06:34:20.300Z,927.47
2017-06-13T06:34:48.579Z,927.45
2017-06-13T06:35:16.895Z,927.45
2017-06-13T06:35:45.018Z,927.43
2017-06-13T06:36:13.067Z,927.4
2017-06-13T06:36:41.197Z,927.38
2017-06-13T06:37:09.264Z,927.37
2017-06-13T06:37:37.564Z,927.39
2017-06-13T06:38:05.893Z,927.4
2017-06-13T06:38:34.100Z,927.39
2017-06-13T06:39:45.398Z,927.36
2017-06-13T06:40:13.665Z,927.39
2017-06-13T06:40:41.938Z,927.38
2017-06-13T06:41:10.251Z,927.37
2017-06-13T06:41:38.370Z,927.37